createdAt,value
2022-11-16T00:04:24.680Z,72
2022-11-16T00:14:24.547Z,72
2022-11-16T00:24:24.666Z,72
2022-11-16T00:34:24.736Z,72
2022-11-16T00:44:24.690Z,72
2022-11-16T00:54:24.765Z,72
2022-11-16T01:04:24.645Z,72
2022-11-16T01:14:24.587Z,72
2022-11-16T01:24:24.718Z,71.5
2022-11-16T01:34:24.788Z,71.5
2022-11-16T01:44:24.740Z,71.5
2022-11-16T01:54:24.811Z,71.5
2022-11-16T02:04:24.704Z,71.5
2022-11-16T02:14:24.775Z,71.5
2022-11-16T02:24:24.698Z,71.5
2022-11-16T02:34:24.758Z,71.5
2022-11-16T02:44:24.898Z,71.5
2022-11-16T02:54:24.755Z,71
2022-11-16T03:04:24.890Z,71
2022-11-16T03:14:24.785Z,71
2022-11-16T03:24:24.915Z,71
2022-11-16T03:34:24.757Z,71
2022-11-16T03:44:24.880Z,71
2022-11-16T03:54:24.751Z,71
2022-11-16T04:04:24.871Z,71
2022-11-16T04:14:24.953Z,71
2022-11-16T04:24:24.865Z,71
2022-11-16T04:34:24.952Z,71
2022-11-16T04:44:29.848Z,71
2022-11-16T04:54:24.970Z,71
2022-11-16T05:04:24.888Z,71
2022-11-16T05:14:24.937Z,71
2022-11-16T05:24:24.911Z,71
2022-11-16T05:34:24.995Z,66.5
2022-11-16T05:44:24.911Z,57.5
2022-11-16T05:54:24.995Z,60
2022-11-16T06:04:25.093Z,63
2022-11-16T06:14:24.988Z,64.5
2022-11-16T06:24:25.261Z,66
2022-11-16T06:34:25.006Z,67
2022-11-16T06:44:25.474Z,56
2022-11-16T06:54:24.966Z,57
2022-11-16T07:04:25.133Z,60
2022-11-16T07:14:24.961Z,62.5
2022-11-16T07:24:25.205Z,64
2022-11-16T07:34:24.961Z,62
2022-11-16T07:44:25.369Z,52.5
2022-11-16T07:54:25.159Z,56.5
2022-11-16T08:04:25.198Z,59.5
2022-11-16T08:14:25.188Z,62
2022-11-16T08:24:25.178Z,63.5
2022-11-16T08:34:25.178Z,61
2022-11-16T08:44:25.159Z,53.5
2022-11-16T08:54:25.154Z,56
2022-11-16T09:04:25.270Z,59.5
2022-11-16T09:14:25.136Z,61.5
2022-11-16T09:24:25.365Z,63.5
2022-11-16T09:34:25.151Z,64.5
2022-11-16T09:44:25.440Z,65.5
2022-11-16T09:54:25.190Z,66.5
2022-11-16T10:04:25.446Z,66.5
2022-11-16T10:14:25.317Z,66.5
2022-11-16T10:24:25.423Z,67
2022-11-16T10:34:25.333Z,66.5
2022-11-16T10:44:25.546Z,65.5
2022-11-16T10:54:25.311Z,64.5
2022-11-16T11:04:25.288Z,64
2022-11-16T11:14:25.337Z,67.5
2022-11-16T11:24:54.581Z,66.5
2022-11-16T11:34:25.294Z,67.5
2022-11-16T11:44:25.433Z,68
2022-11-16T11:54:25.514Z,68.5
2022-11-16T12:04:25.479Z,69
2022-11-16T12:14:25.285Z,72
2022-11-16T12:24:25.488Z,73
2022-11-16T12:34:25.266Z,73.5
2022-11-16T12:54:25.504Z,74
2022-11-16T13:04:25.387Z,74
2022-11-16T13:14:25.594Z,74
2022-11-16T13:24:25.374Z,73.5
2022-11-16T13:34:25.608Z,66
2022-11-16T13:44:25.596Z,62.5
2022-11-16T14:04:26.643Z,67.5
2022-11-16T14:14:25.764Z,65
2022-11-16T14:24:25.526Z,62
2022-11-16T14:34:25.436Z,64
2022-11-16T14:44:25.525Z,66.5
2022-11-16T14:54:25.631Z,68.5
2022-11-16T15:04:25.484Z,69.5
2022-11-16T15:14:25.623Z,70
2022-11-16T15:24:32.738Z,71
2022-11-16T15:34:25.685Z,71.5
2022-11-16T15:44:25.498Z,72
2022-11-16T15:54:25.713Z,72.5
2022-11-16T16:04:25.495Z,72.5
2022-11-16T16:14:25.772Z,73
2022-11-16T16:24:25.489Z,73
2022-11-16T16:34:25.695Z,73.5
2022-11-16T16:44:25.680Z,73.5
2022-11-16T16:54:25.709Z,73.5
2022-11-16T17:04:25.678Z,73.5
2022-11-16T17:14:25.771Z,73.5
2022-11-16T17:24:25.678Z,73.5
2022-11-16T17:34:25.703Z,73.5
2022-11-16T17:44:25.688Z,74
2022-11-16T17:54:25.904Z,71
2022-11-16T18:04:25.723Z,60.5
2022-11-16T18:14:25.823Z,62
2022-11-16T18:24:25.896Z,65
2022-11-16T18:34:25.914Z,67
2022-11-16T18:44:25.730Z,69
2022-11-16T18:54:25.978Z,70.5
2022-11-16T19:04:25.647Z,71.5
2022-11-16T19:14:25.884Z,63.5
2022-11-16T19:24:25.855Z,58
2022-11-16T19:34:30.464Z,62
2022-11-16T19:44:25.888Z,64.5
2022-11-16T19:54:25.769Z,67
2022-11-16T20:04:25.837Z,68.5
2022-11-16T20:14:25.937Z,69.5
2022-11-16T20:24:25.831Z,70.5
2022-11-16T20:34:25.854Z,71.5
2022-11-16T20:44:25.824Z,72
2022-11-16T20:54:26.017Z,72.5
2022-11-16T21:04:25.862Z,73
2022-11-16T21:14:25.985Z,73.5
2022-11-16T21:24:25.831Z,73.5
2022-11-16T21:34:26.061Z,73.5
2022-11-16T21:44:25.806Z,73.5
2022-11-16T21:54:26.035Z,74
2022-11-16T22:04:26.021Z,74
2022-11-16T22:14:26.028Z,74
2022-11-16T22:24:26.118Z,74
2022-11-16T22:34:26.052Z,74
2022-11-16T22:44:26.116Z,74
2022-11-16T22:54:28.573Z,74
2022-11-16T23:04:26.000Z,74
2022-11-16T23:14:25.926Z,74
2022-11-16T23:24:26.003Z,74
2022-11-16T23:34:26.211Z,74
2022-11-16T23:44:26.000Z,74
2022-11-16T23:54:26.209Z,74
